Marianne — VRFM5 — position and weather

sailwx.info

Track history (hours):
 
Tides and Currents Weather Stations Pressure Air Temp Water Temp Dewpoint Dewpoint Depression Visibility Wind Speed Wind Dir Waves Ship Positions

Marianne

Last reported at 2015-Jan-29 09:26 UTC. Time now 2015-Jan-29 10:24 UTC.
Position N 54°56' E 005°08'.

Length 97 m; draft 5.5 m.

Type: Ship (hazmat cat B). MMSI: 477560836.

Date/timePositionNaut miles runAvg speedWind from/ knotsBaromVisibWave heightAir tempDewpointWater temp
2015-Jan-29 09:26N 54°56' E 005°08'1011.0
2015-Jan-29 08:33N 55°05' E 005°12'  
2015-Jan-24 16:08N 54°18' E 004°59'711.6
2015-Jan-24 15:33N 54°11' E 004°58'1212.0
2015-Jan-24 14:33N 53°59' E 004°55'1212.0
2015-Jan-24 13:33N 53°47' E 004°52'1211.6
2015-Jan-24 12:32N 53°36' E 004°50'1212.1
2015-Jan-24 11:33N 53°25' E 004°42'1212.3
2015-Jan-24 10:33N 53°13' E 004°34'1612.7
2015-Jan-24 09:18N 52°60' E 004°20'912.6
2015-Jan-24 08:34N 52°51' E 004°14'1313.3
2015-Jan-24 07:33N 52°41' E 003°60'1414.0
2015-Jan-24 06:33N 52°31' E 003°44'4314.1
2015-Jan-24 03:30N 51°51' E 003°19'10 9.7
2015-Jan-24 02:27N 51°41' E 003°19'1112.1
2015-Jan-24 01:33N 51°31' E 003°26'9 9.2
2015-Jan-24 00:33N 51°26' E 003°39'1010.5
2015-Jan-23 23:33N 51°22' E 003°54'9 8.7
2015-Jan-23 22:34N 51°22' E 004°08'9 8.7
2015-Jan-23 21:33N 51°16' E 004°17'0 0.4
2015-Jan-23 20:33N 51°16' E 004°17'1 0.1
2015-Jan-23 13:29N 51°16' E 004°16'0 0.0
2015-Jan-23 12:29N 51°16' E 004°16'0 0.0
2015-Jan-23 11:20N 51°16' E 004°16'0 0.0
2015-Jan-23 09:32N 51°16' E 004°16'0 0.3
2015-Jan-23 08:34N 51°16' E 004°15'0 0.2
2015-Jan-23 07:33N 51°16' E 004°15'0 0.0
2015-Jan-23 06:30N 51°16' E 004°15'0 0.0
2015-Jan-23 05:30N 51°16' E 004°15'0 0.0
2015-Jan-23 04:33N 51°16' E 004°15'0 0.0
2015-Jan-23 03:30N 51°16' E 004°15'0 0.0
2015-Jan-23 02:27N 51°16' E 004°15'0 0.0
2015-Jan-23 01:24N 51°16' E 004°15'0 0.0
2015-Jan-23 00:33N 51°16' E 004°15'0 0.0
2015-Jan-22 23:33N 51°16' E 004°15'0 0.0
2015-Jan-22 22:33N 51°16' E 004°15'0 0.0
2015-Jan-22 21:33N 51°16' E 004°15'0 0.0
2015-Jan-22 20:27N 51°16' E 004°15'0 0.0
2015-Jan-22 19:33N 51°16' E 004°15'0 0.0
2015-Jan-22 18:33N 51°16' E 004°15'0 0.0
2015-Jan-22 17:33N 51°16' E 004°15'0 0.0
2015-Jan-22 16:33N 51°16' E 004°15'0 0.0
2015-Jan-22 15:24N 51°16' E 004°15'0 0.0
2015-Jan-22 14:27N 51°16' E 004°15'0 0.0
2015-Jan-22 13:33N 51°16' E 004°15'0 0.0
2015-Jan-22 12:30N 51°16' E 004°15'0 0.0
2015-Jan-22 11:33N 51°16' E 004°15'0 0.0
2015-Jan-22 10:30N 51°16' E 004°15'0 0.0
2015-Jan-22 09:27N 51°16' E 004°15'0 0.0
2015-Jan-22 08:33N 51°16' E 004°15'0 0.0
2015-Jan-22 07:33N 51°16' E 004°15'1 0.9
2015-Jan-22 06:33N 51°16' E 004°17'0 0.0
2015-Jan-22 05:33N 51°16' E 004°17'1 0.6
2015-Jan-22 04:34N 51°16' E 004°17'2 2.3
2015-Jan-22 03:34N 51°18' E 004°17'7 6.5
2015-Jan-22 02:33N 51°23' E 004°09'10 9.6
2015-Jan-22 01:33N 51°21' E 003°54'1212.2
2015-Jan-22 00:33N 51°26' E 003°36'1110.6
2015-Jan-21 23:33N 51°34' E 003°24'1012.2
2015-Jan-21 22:42N 51°42' E 003°15'1 6.6
2015-Jan-21 22:29N 51°44' E 003°14'3 3.7
2015-Jan-21 21:33N 51°47' E 003°14'1414.2
2015-Jan-21 20:32N 52°01' E 003°20'7912.4
2015-Jan-21 14:11N 53°10' E 004°24'1113.8
2015-Jan-21 13:22N 53°21' E 004°30'1214.0
2015-Jan-21 12:32N 53°32' E 004°37'2813.3
2015-Jan-21 10:25N 53°59' E 004°47'1312.9
2015-Jan-21 09:23N 54°12' E 004°52'23413.1
2015-Jan-20 15:33N 58°06' E 005°04'1212.0
2015-Jan-20 14:33N 58°18' E 005°01'  
Track history (hours):
 
Tides and Currents Weather Stations Pressure Air Temp Water Temp Dewpoint Dewpoint Depression Visibility Wind Speed Wind Dir Waves Ship Positions

Marianne

Last reported at 2015-Jan-29 09:26 UTC. Time now 2015-Jan-29 10:24 UTC.
Position N 54°56' E 005°08'.

Length 97 m; draft 5.5 m.

Type: Ship (hazmat cat B). MMSI: 477560836.

Date/timePositionNaut miles runAvg speedWind from/ knotsBaromVisibWave heightAir tempDewpointWater temp
2015-Jan-29 09:26N 54°56' E 005°08'1011.0
2015-Jan-29 08:33N 55°05' E 005°12'  
2015-Jan-24 16:08N 54°18' E 004°59'711.6
2015-Jan-24 15:33N 54°11' E 004°58'1212.0
2015-Jan-24 14:33N 53°59' E 004°55'1212.0
2015-Jan-24 13:33N 53°47' E 004°52'1211.6
2015-Jan-24 12:32N 53°36' E 004°50'1212.1
2015-Jan-24 11:33N 53°25' E 004°42'1212.3
2015-Jan-24 10:33N 53°13' E 004°34'1612.7
2015-Jan-24 09:18N 52°60' E 004°20'912.6
2015-Jan-24 08:34N 52°51' E 004°14'1313.3
2015-Jan-24 07:33N 52°41' E 003°60'1414.0
2015-Jan-24 06:33N 52°31' E 003°44'4314.1
2015-Jan-24 03:30N 51°51' E 003°19'10 9.7
2015-Jan-24 02:27N 51°41' E 003°19'1112.1
2015-Jan-24 01:33N 51°31' E 003°26'9 9.2
2015-Jan-24 00:33N 51°26' E 003°39'1010.5
2015-Jan-23 23:33N 51°22' E 003°54'9 8.7
2015-Jan-23 22:34N 51°22' E 004°08'9 8.7
2015-Jan-23 21:33N 51°16' E 004°17'0 0.4
2015-Jan-23 20:33N 51°16' E 004°17'1 0.1
2015-Jan-23 13:29N 51°16' E 004°16'0 0.0
2015-Jan-23 12:29N 51°16' E 004°16'0 0.0
2015-Jan-23 11:20N 51°16' E 004°16'0 0.0
2015-Jan-23 09:32N 51°16' E 004°16'0 0.3
2015-Jan-23 08:34N 51°16' E 004°15'0 0.2
2015-Jan-23 07:33N 51°16' E 004°15'0 0.0
2015-Jan-23 06:30N 51°16' E 004°15'0 0.0
2015-Jan-23 05:30N 51°16' E 004°15'0 0.0
2015-Jan-23 04:33N 51°16' E 004°15'0 0.0
2015-Jan-23 03:30N 51°16' E 004°15'0 0.0
2015-Jan-23 02:27N 51°16' E 004°15'0 0.0
2015-Jan-23 01:24N 51°16' E 004°15'0 0.0
2015-Jan-23 00:33N 51°16' E 004°15'0 0.0
2015-Jan-22 23:33N 51°16' E 004°15'0 0.0
2015-Jan-22 22:33N 51°16' E 004°15'0 0.0
2015-Jan-22 21:33N 51°16' E 004°15'0 0.0
2015-Jan-22 20:27N 51°16' E 004°15'0 0.0
2015-Jan-22 19:33N 51°16' E 004°15'0 0.0
2015-Jan-22 18:33N 51°16' E 004°15'0 0.0
2015-Jan-22 17:33N 51°16' E 004°15'0 0.0
2015-Jan-22 16:33N 51°16' E 004°15'0 0.0
2015-Jan-22 15:24N 51°16' E 004°15'0 0.0
2015-Jan-22 14:27N 51°16' E 004°15'0 0.0
2015-Jan-22 13:33N 51°16' E 004°15'0 0.0
2015-Jan-22 12:30N 51°16' E 004°15'0 0.0
2015-Jan-22 11:33N 51°16' E 004°15'0 0.0
2015-Jan-22 10:30N 51°16' E 004°15'0 0.0
2015-Jan-22 09:27N 51°16' E 004°15'0 0.0
2015-Jan-22 08:33N 51°16' E 004°15'0 0.0
2015-Jan-22 07:33N 51°16' E 004°15'1 0.9
2015-Jan-22 06:33N 51°16' E 004°17'0 0.0
2015-Jan-22 05:33N 51°16' E 004°17'1 0.6
2015-Jan-22 04:34N 51°16' E 004°17'2 2.3
2015-Jan-22 03:34N 51°18' E 004°17'7 6.5
2015-Jan-22 02:33N 51°23' E 004°09'10 9.6
2015-Jan-22 01:33N 51°21' E 003°54'1212.2
2015-Jan-22 00:33N 51°26' E 003°36'1110.6
2015-Jan-21 23:33N 51°34' E 003°24'1012.2
2015-Jan-21 22:42N 51°42' E 003°15'1 6.6
2015-Jan-21 22:29N 51°44' E 003°14'3 3.7
2015-Jan-21 21:33N 51°47' E 003°14'1414.2
2015-Jan-21 20:32N 52°01' E 003°20'7912.4
2015-Jan-21 14:11N 53°10' E 004°24'1113.8
2015-Jan-21 13:22N 53°21' E 004°30'1214.0
2015-Jan-21 12:32N 53°32' E 004°37'2813.3
2015-Jan-21 10:25N 53°59' E 004°47'1312.9
2015-Jan-21 09:23N 54°12' E 004°52'23413.1
2015-Jan-20 15:33N 58°06' E 005°04'1212.0
2015-Jan-20 14:33N 58°18' E 005°01'  

Dump ship's entire track history